createdAt,value
2022-09-06T00:00:18.386Z,21.10
2022-09-06T00:02:45.404Z,21.00
2022-09-06T00:05:12.740Z,21.00
2022-09-06T00:07:39.868Z,21.00
2022-09-06T00:10:07.225Z,20.90
2022-09-06T00:12:34.086Z,20.90
2022-09-06T00:15:00.771Z,20.90
2022-09-06T00:17:27.705Z,20.80
2022-09-06T00:19:54.858Z,20.80
2022-09-06T00:22:21.732Z,20.70
2022-09-06T00:24:48.483Z,20.70
2022-09-06T00:27:15.409Z,20.70
2022-09-06T00:29:42.300Z,20.60
2022-09-06T00:32:09.042Z,20.60
2022-09-06T00:34:35.787Z,20.60
2022-09-06T00:37:02.508Z,20.70
2022-09-06T00:39:29.353Z,20.60
2022-09-06T00:41:56.255Z,20.60
2022-09-06T00:44:25.490Z,20.50
2022-09-06T00:46:54.132Z,20.50
2022-09-06T00:49:26.041Z,20.50
2022-09-06T00:52:01.662Z,20.50
2022-09-06T00:54:30.704Z,20.50
2022-09-06T00:56:58.242Z,20.50
2022-09-06T00:59:27.121Z,20.40
2022-09-06T01:01:53.891Z,20.40
2022-09-06T01:04:21.666Z,20.40
2022-09-06T01:07:04.561Z,20.40
2022-09-06T01:09:43.424Z,20.40
2022-09-06T01:12:29.113Z,20.40
2022-09-06T01:15:06.102Z,20.40
2022-09-06T01:17:51.721Z,20.40
2022-09-06T01:20:28.505Z,20.40
2022-09-06T01:23:16.893Z,20.40
2022-09-06T01:26:02.550Z,20.40
2022-09-06T01:28:35.333Z,20.40
2022-09-06T01:31:40.163Z,20.40
2022-09-06T01:34:07.061Z,20.40
2022-09-06T01:37:08.402Z,20.40
2022-09-06T01:39:37.483Z,20.40
2022-09-06T01:42:12.368Z,20.40
2022-09-06T01:44:43.590Z,20.40
2022-09-06T01:47:33.496Z,20.40
2022-09-06T01:50:03.183Z,20.40
2022-09-06T01:52:43.754Z,20.40
2022-09-06T01:55:30.958Z,20.40
2022-09-06T01:58:15.813Z,20.40
2022-09-06T02:01:02.059Z,20.40
2022-09-06T02:03:37.610Z,20.50
2022-09-06T02:06:08.965Z,20.50
2022-09-06T02:08:40.889Z,20.50
2022-09-06T02:11:09.917Z,20.50
2022-09-06T02:13:59.642Z,20.50
2022-09-06T02:16:30.122Z,20.50
2022-09-06T02:19:23.505Z,20.50
2022-09-06T02:21:52.180Z,20.50
2022-09-06T02:24:28.909Z,20.50
2022-09-06T02:26:56.201Z,20.50
2022-09-06T02:29:23.955Z,20.50
2022-09-06T02:32:08.358Z,20.50
2022-09-06T02:34:40.111Z,20.50
2022-09-06T02:37:07.721Z,20.50
2022-09-06T02:39:34.633Z,20.50
2022-09-06T02:42:02.468Z,20.50
2022-09-06T02:44:29.172Z,20.50
2022-09-06T02:46:57.247Z,20.50
2022-09-06T02:49:25.400Z,20.50
2022-09-06T02:51:52.133Z,20.50
2022-09-06T02:54:18.963Z,20.50
2022-09-06T02:56:50.211Z,20.50
2022-09-06T02:59:18.770Z,20.50
2022-09-06T03:01:45.777Z,20.50
2022-09-06T03:04:12.553Z,20.50
2022-09-06T03:06:40.049Z,20.40
2022-09-06T03:09:06.757Z,20.40
2022-09-06T03:11:33.483Z,20.40
2022-09-06T03:14:00.285Z,20.40
2022-09-06T03:16:27.130Z,20.40
2022-09-06T03:18:54.252Z,20.40
2022-09-06T03:21:21.105Z,20.40
2022-09-06T03:23:47.976Z,20.40
2022-09-06T03:26:14.764Z,20.40
2022-09-06T03:28:42.903Z,20.30
2022-09-06T03:31:10.041Z,20.40
2022-09-06T03:33:37.027Z,20.40
2022-09-06T03:36:04.380Z,20.40
2022-09-06T03:38:31.233Z,20.40
2022-09-06T03:40:58.590Z,20.30
2022-09-06T03:43:26.515Z,20.40
2022-09-06T03:45:57.688Z,20.30
2022-09-06T03:48:27.251Z,20.30
2022-09-06T03:50:56.611Z,20.30
2022-09-06T03:53:25.291Z,20.20
2022-09-06T03:55:54.579Z,20.20
2022-09-06T03:58:23.538Z,20.20
2022-09-06T04:00:59.238Z,20.10
2022-09-06T04:03:25.970Z,20.10
2022-09-06T04:05:52.941Z,20.10
2022-09-06T04:08:19.613Z,20.10
2022-09-06T04:10:50.880Z,20.10
2022-09-06T04:13:17.813Z,20.00
2022-09-06T04:15:47.968Z,20.00
2022-09-06T04:18:15.968Z,20.00
2022-09-06T04:20:43.453Z,19.90
2022-09-06T04:23:10.333Z,19.90
2022-09-06T04:25:37.189Z,19.90
2022-09-06T04:28:04.185Z,19.90
2022-09-06T04:30:31.009Z,19.90
2022-09-06T04:32:57.999Z,19.80
2022-09-06T04:35:24.747Z,19.80
2022-09-06T04:37:51.474Z,19.80
2022-09-06T04:40:18.254Z,19.70
2022-09-06T04:42:44.978Z,19.70
2022-09-06T04:45:12.183Z,19.60
2022-09-06T04:47:39.013Z,19.60
2022-09-06T04:50:06.372Z,19.60
2022-09-06T04:52:33.190Z,19.50
2022-09-06T04:55:00.167Z,19.50
2022-09-06T04:57:27.003Z,19.50
2022-09-06T04:59:53.746Z,19.40
2022-09-06T05:02:20.646Z,19.40
2022-09-06T05:04:47.506Z,19.40
2022-09-06T05:07:14.271Z,19.40
2022-09-06T05:09:40.941Z,19.30
2022-09-06T05:12:07.975Z,19.30
2022-09-06T05:14:35.234Z,19.20
2022-09-06T05:17:02.002Z,19.20
2022-09-06T05:19:28.729Z,19.20
2022-09-06T05:21:56.205Z,19.10
2022-09-06T05:24:22.922Z,19.10
2022-09-06T05:26:49.744Z,19.10
2022-09-06T05:29:16.482Z,19.10
2022-09-06T05:31:43.283Z,19.10
2022-09-06T05:34:10.591Z,19.10
2022-09-06T05:36:38.719Z,19.10
2022-09-06T05:39:05.735Z,19.10
2022-09-06T05:41:33.700Z,19.10
2022-09-06T05:44:00.535Z,18.90
2022-09-06T05:46:27.369Z,18.90
2022-09-06T05:49:01.299Z,18.90
2022-09-06T06:22:04.538Z,18.80
2022-09-06T06:24:31.319Z,18.80
2022-09-06T06:26:58.160Z,18.90
2022-09-06T06:29:25.630Z,18.90
2022-09-06T06:31:52.397Z,18.90
2022-09-06T06:34:21.873Z,18.90
2022-09-06T06:36:48.677Z,19.00
2022-09-06T06:39:15.631Z,19.00
2022-09-06T06:41:43.133Z,19.10
2022-09-06T06:44:28.389Z,19.10
2022-09-06T06:46:57.830Z,19.10
2022-09-06T06:49:25.145Z,19.10
2022-09-06T06:51:52.062Z,19.10
2022-09-06T06:54:18.930Z,19.10
2022-09-06T06:56:45.791Z,19.20
2022-09-06T06:59:12.703Z,19.20
2022-09-06T07:01:39.593Z,19.20
2022-09-06T07:04:07.213Z,19.30
2022-09-06T07:12:21.288Z,19.50
2022-09-06T07:14:47.996Z,19.50
2022-09-06T07:17:14.696Z,19.60
2022-09-06T07:22:28.158Z,19.70
2022-09-06T07:24:54.987Z,19.80
2022-09-06T07:30:09.410Z,19.90
2022-09-06T07:32:36.103Z,20.00
2022-09-06T07:35:02.796Z,20.00
2022-09-06T07:37:29.490Z,20.10
2022-09-06T07:39:56.417Z,20.20
2022-09-06T07:42:23.481Z,20.30
2022-09-06T07:44:50.381Z,20.30
2022-09-06T07:53:09.560Z,20.60
2022-09-06T07:55:38.983Z,20.70
2022-09-06T07:58:05.806Z,20.80
2022-09-06T08:00:32.896Z,20.90
2022-09-06T08:03:00.265Z,21.00
2022-09-06T08:11:00.725Z,21.30
2022-09-06T08:13:27.715Z,21.40
2022-09-06T08:16:02.195Z,21.50
2022-09-06T08:18:29.364Z,21.60
2022-09-06T08:20:56.068Z,21.70
2022-09-06T08:23:22.975Z,21.90
2022-09-06T08:25:59.012Z,22.00
2022-09-06T08:28:28.808Z,22.10
2022-09-06T08:30:56.243Z,22.30
2022-09-06T08:33:25.729Z,22.50
2022-09-06T08:35:59.156Z,22.80
2022-09-06T08:38:26.742Z,23.50
2022-09-06T08:40:55.503Z,24.40
2022-09-06T08:43:23.137Z,25.50
2022-09-06T08:45:59.264Z,26.60
2022-09-06T08:48:30.705Z,27.80
2022-09-06T08:51:29.067Z,29.00
2022-09-06T08:54:03.806Z,30.30
2022-09-06T08:56:38.422Z,31.50
2022-09-06T08:59:06.591Z,32.60
2022-09-06T09:02:13.701Z,33.50
2022-09-06T09:04:43.922Z,34.40
2022-09-06T09:07:52.242Z,35.30
2022-09-06T09:10:47.142Z,36.30
2022-09-06T09:13:24.138Z,37.10
2022-09-06T09:15:50.832Z,37.80
2022-09-06T09:18:23.466Z,38.40
2022-09-06T09:20:50.248Z,39.00
2022-09-06T09:23:17.321Z,39.40
2022-09-06T09:25:46.487Z,39.90
2022-09-06T09:28:31.816Z,40.40
2022-09-06T09:30:58.926Z,40.90
2022-09-06T09:33:35.513Z,41.20
2022-09-06T09:36:07.436Z,41.70
2022-09-06T09:38:46.000Z,42.00
2022-09-06T09:41:29.174Z,42.30
2022-09-06T09:44:04.903Z,42.70
2022-09-06T09:46:34.301Z,43.00
2022-09-06T09:49:28.905Z,43.30
2022-09-06T09:52:09.929Z,43.60
2022-09-06T09:54:41.268Z,43.90
2022-09-06T09:57:11.988Z,44.10
2022-09-06T10:00:03.240Z,44.30
2022-09-06T10:02:38.986Z,44.60
2022-09-06T10:05:12.166Z,44.90
2022-09-06T10:07:43.582Z,45.20
2022-09-06T10:10:14.740Z,45.40
2022-09-06T10:12:42.990Z,45.60
2022-09-06T10:15:32.731Z,45.80
2022-09-06T10:17:59.569Z,46.00
2022-09-06T10:20:34.969Z,46.10
2022-09-06T10:23:05.166Z,46.30
2022-09-06T10:25:39.781Z,46.40
2022-09-06T10:28:33.831Z,46.50
2022-09-06T10:31:06.368Z,46.70
2022-09-06T10:34:03.416Z,46.70
2022-09-06T10:36:38.965Z,46.90
2022-09-06T10:39:29.827Z,47.10
2022-09-06T10:42:22.130Z,47.30
2022-09-06T10:45:03.477Z,47.40
2022-09-06T10:47:49.222Z,47.60
2022-09-06T10:50:17.137Z,47.70
2022-09-06T10:52:46.498Z,47.90
2022-09-06T10:55:18.014Z,48.00
2022-09-06T11:00:46.896Z,48.20
2022-09-06T11:06:16.445Z,48.30
2022-09-06T11:09:29.488Z,48.30
2022-09-06T11:12:07.358Z,48.40
2022-09-06T11:14:35.217Z,48.40
2022-09-06T11:17:31.217Z,48.50
2022-09-06T11:20:17.801Z,48.60
2022-09-06T11:23:02.607Z,48.70
2022-09-06T11:25:57.385Z,48.80
2022-09-06T11:28:40.041Z,48.80
2022-09-06T11:34:11.938Z,48.70
2022-09-06T11:36:46.852Z,48.60
2022-09-06T11:39:20.480Z,48.60
2022-09-06T11:41:47.397Z,48.50
2022-09-06T11:44:53.168Z,48.30
2022-09-06T11:47:37.264Z,48.10
2022-09-06T11:50:22.072Z,48.00
2022-09-06T11:53:09.016Z,48.00
2022-09-06T11:56:09.746Z,48.10
2022-09-06T11:58:51.563Z,48.20
2022-09-06T12:01:18.854Z,48.30
2022-09-06T12:04:04.848Z,48.30
2022-09-06T12:07:03.588Z,48.30
2022-09-06T12:09:39.574Z,48.20
2022-09-06T12:12:07.804Z,48.00
2022-09-06T12:14:46.990Z,47.80
2022-09-06T12:17:14.006Z,47.60
2022-09-06T12:19:44.741Z,47.50
2022-09-06T12:22:26.813Z,47.50
2022-09-06T12:24:55.837Z,47.50
2022-09-06T12:27:50.427Z,47.40
2022-09-06T12:30:30.927Z,47.40
2022-09-06T12:32:58.610Z,47.40
2022-09-06T12:38:24.268Z,47.30
2022-09-06T12:40:55.072Z,47.20
2022-09-06T12:43:21.976Z,47.00
2022-09-06T12:45:51.464Z,46.70
2022-09-06T12:48:30.562Z,46.20
2022-09-06T12:51:02.417Z,45.60
2022-09-06T12:53:31.482Z,44.90
2022-09-06T12:56:12.461Z,44.30
2022-09-06T12:58:39.661Z,43.50
2022-09-06T13:01:32.490Z,42.90
2022-09-06T13:04:19.107Z,42.10
2022-09-06T13:06:47.921Z,41.50
2022-09-06T13:09:19.023Z,41.00
2022-09-06T13:11:52.102Z,40.50
2022-09-06T13:14:26.729Z,40.10
2022-09-06T13:16:57.091Z,39.70
2022-09-06T13:19:34.916Z,39.40
2022-09-06T13:22:05.207Z,39.00
2022-09-06T13:24:35.352Z,38.80
2022-09-06T13:27:26.680Z,38.40
2022-09-06T13:30:06.953Z,38.20
2022-09-06T13:32:35.113Z,37.90
2022-09-06T13:35:02.701Z,37.70
2022-09-06T13:37:31.815Z,37.50
2022-09-06T13:39:59.659Z,37.30
2022-09-06T13:42:34.843Z,37.10
2022-09-06T13:45:29.493Z,36.90
2022-09-06T13:48:07.998Z,36.60
2022-09-06T13:50:43.388Z,36.40
2022-09-06T13:53:10.511Z,36.30
2022-09-06T13:55:37.305Z,36.10
2022-09-06T13:58:04.134Z,35.90
2022-09-06T14:00:31.249Z,35.70
2022-09-06T14:02:58.888Z,35.60
2022-09-06T14:05:25.715Z,35.40
2022-09-06T14:07:52.405Z,35.30
2022-09-06T14:10:21.301Z,35.10
2022-09-06T14:12:47.993Z,35.00
2022-09-06T14:15:14.877Z,34.80
2022-09-06T14:17:41.927Z,34.80
2022-09-06T14:20:09.384Z,34.90
2022-09-06T14:22:36.098Z,35.10
2022-09-06T14:25:03.187Z,35.40
2022-09-06T14:27:30.004Z,35.80
2022-09-06T14:29:56.805Z,36.10
2022-09-06T14:32:23.789Z,36.50
2022-09-06T14:34:50.678Z,36.80
2022-09-06T14:37:17.485Z,37.10
2022-09-06T14:39:45.102Z,37.40
2022-09-06T14:42:12.204Z,37.60
2022-09-06T14:44:39.817Z,37.80
2022-09-06T14:47:06.738Z,38.00
2022-09-06T14:49:33.501Z,38.20
2022-09-06T14:52:00.321Z,38.40
2022-09-06T14:54:29.266Z,38.60
2022-09-06T14:56:56.689Z,38.70
2022-09-06T14:59:23.450Z,38.80
2022-09-06T15:01:50.263Z,39.00
2022-09-06T15:04:17.014Z,39.20
2022-09-06T15:06:47.255Z,39.30
2022-09-06T15:09:15.878Z,39.40
2022-09-06T15:11:48.762Z,39.50
2022-09-06T15:14:21.149Z,39.50
2022-09-06T15:16:54.769Z,39.50
2022-09-06T15:19:24.712Z,39.50
2022-09-06T15:21:51.692Z,39.40
2022-09-06T15:24:18.648Z,39.30
2022-09-06T15:26:45.980Z,39.30
2022-09-06T15:29:14.751Z,39.30
2022-09-06T15:31:42.621Z,39.30
2022-09-06T15:34:10.494Z,39.30
2022-09-06T15:36:37.561Z,39.30
2022-09-06T15:39:05.667Z,39.30
2022-09-06T15:41:36.134Z,39.30
2022-09-06T15:44:12.038Z,39.20
2022-09-06T15:46:51.591Z,39.30
2022-09-06T15:49:27.837Z,39.30
2022-09-06T15:51:56.944Z,39.30
2022-09-06T15:54:42.861Z,39.30
2022-09-06T15:57:09.681Z,39.30
2022-09-06T15:59:36.998Z,39.20
2022-09-06T16:02:03.816Z,39.20
2022-09-06T16:04:30.830Z,39.10
2022-09-06T16:06:57.562Z,39.10
2022-09-06T16:09:24.465Z,39.00
2022-09-06T16:11:51.440Z,38.90
2022-09-06T16:14:18.470Z,38.80
2022-09-06T16:16:45.666Z,38.80
2022-09-06T16:19:14.025Z,38.70
2022-09-06T16:21:42.364Z,38.60
2022-09-06T16:24:12.258Z,38.60
2022-09-06T16:26:41.631Z,38.60
2022-09-06T16:29:10.401Z,38.50
2022-09-06T16:31:40.335Z,38.50
2022-09-06T16:34:12.130Z,38.40
2022-09-06T16:36:39.725Z,38.20
2022-09-06T16:39:07.165Z,38.10
2022-09-06T16:41:40.900Z,38.00
2022-09-06T16:44:09.518Z,37.90
2022-09-06T16:46:36.351Z,37.80
2022-09-06T16:49:04.620Z,37.70
2022-09-06T16:51:32.173Z,37.60
2022-09-06T16:54:00.186Z,37.50
2022-09-06T16:56:31.813Z,37.40
2022-09-06T16:59:00.337Z,37.30
2022-09-06T17:01:29.645Z,37.20
2022-09-06T17:03:57.564Z,37.10
2022-09-06T17:06:25.581Z,37.00
2022-09-06T17:08:52.517Z,36.90
2022-09-06T17:11:21.498Z,36.80
2022-09-06T17:13:50.484Z,36.70
2022-09-06T17:16:37.373Z,36.50
2022-09-06T17:19:05.765Z,36.30
2022-09-06T17:21:34.154Z,36.10
2022-09-06T17:24:04.545Z,35.80
2022-09-06T17:26:33.321Z,35.60
2022-09-06T17:29:00.442Z,35.30
2022-09-06T17:31:28.187Z,35.00
2022-09-06T17:33:55.066Z,34.70
2022-09-06T17:36:24.042Z,34.40
2022-09-06T17:38:53.626Z,34.10
2022-09-06T17:41:28.089Z,33.80
2022-09-06T17:43:55.347Z,33.50
2022-09-06T17:46:27.844Z,33.20
2022-09-06T17:48:55.999Z,33.00
2022-09-06T17:51:24.108Z,32.80
2022-09-06T17:53:52.100Z,32.60
2022-09-06T17:56:19.967Z,32.40
2022-09-06T17:58:54.730Z,32.20
2022-09-06T18:01:23.531Z,32.00
2022-09-06T18:03:50.566Z,31.80
2022-09-06T18:06:22.550Z,31.70
2022-09-06T18:08:51.957Z,31.50
2022-09-06T18:11:28.488Z,31.40
2022-09-06T18:14:00.438Z,31.20
2022-09-06T18:16:28.941Z,31.10
2022-09-06T18:18:57.988Z,30.90
2022-09-06T18:21:27.141Z,30.80
2022-09-06T18:23:55.520Z,30.60
2022-09-06T18:26:23.237Z,30.60
2022-09-06T18:28:50.595Z,30.40
2022-09-06T18:31:20.324Z,30.30
2022-09-06T18:33:47.612Z,30.20
2022-09-06T18:36:16.042Z,30.10
2022-09-06T18:38:43.981Z,30.00
2022-09-06T18:41:33.223Z,29.90
2022-09-06T18:44:02.882Z,29.80
2022-09-06T18:46:34.711Z,29.70
2022-09-06T18:49:02.184Z,29.60
2022-09-06T18:51:29.591Z,29.50
2022-09-06T18:53:57.980Z,29.40
2022-09-06T18:56:25.421Z,29.30
2022-09-06T18:58:58.326Z,29.20
2022-09-06T19:01:27.059Z,29.10
2022-09-06T19:03:55.685Z,28.90
2022-09-06T19:06:23.006Z,28.90
2022-09-06T19:08:52.758Z,28.70
2022-09-06T19:11:21.881Z,28.60
2022-09-06T19:13:54.042Z,28.50
2022-09-06T19:16:25.112Z,28.40
2022-09-06T19:18:55.547Z,28.30
2022-09-06T19:21:25.573Z,28.20
2022-09-06T19:24:01.619Z,28.10
2022-09-06T19:26:31.718Z,28.00
2022-09-06T19:29:01.723Z,27.90
2022-09-06T19:31:31.484Z,27.90
2022-09-06T19:33:59.694Z,27.80
2022-09-06T19:36:28.438Z,27.70
2022-09-06T19:39:05.054Z,27.70
2022-09-06T19:41:41.676Z,27.60
2022-09-06T19:44:10.219Z,27.50
2022-09-06T19:46:37.663Z,27.50
2022-09-06T19:49:08.102Z,27.50
2022-09-06T19:51:36.288Z,27.40
2022-09-06T19:54:03.555Z,27.30
2022-09-06T19:56:35.377Z,27.30
2022-09-06T19:59:06.336Z,27.20
2022-09-06T20:01:34.977Z,27.20
2022-09-06T20:04:03.898Z,27.10
2022-09-06T20:06:31.535Z,27.10
2022-09-06T20:08:59.919Z,27.10
2022-09-06T20:11:29.530Z,27.00
2022-09-06T20:13:57.123Z,27.00
2022-09-06T20:16:27.263Z,26.90
2022-09-06T20:19:01.084Z,26.90
2022-09-06T20:21:29.368Z,26.80
2022-09-06T20:23:58.023Z,26.80
2022-09-06T20:26:26.770Z,26.80
2022-09-06T20:28:58.429Z,26.70
2022-09-06T20:31:26.812Z,26.60
2022-09-06T20:33:53.875Z,26.60
2022-09-06T20:36:20.982Z,26.50
2022-09-06T20:38:48.347Z,26.50
2022-09-06T20:41:23.686Z,26.40
2022-09-06T20:43:52.592Z,26.40
2022-09-06T20:46:21.006Z,26.40
2022-09-06T20:48:48.591Z,26.30
2022-09-06T20:51:19.057Z,26.30
2022-09-06T20:53:53.561Z,26.20
2022-09-06T20:56:23.214Z,26.20
2022-09-06T20:58:52.788Z,26.10
2022-09-06T21:01:23.463Z,26.10
2022-09-06T21:03:54.092Z,26.10
2022-09-06T21:06:22.241Z,26.10
2022-09-06T21:08:50.074Z,26.10
2022-09-06T21:11:17.529Z,26.00
2022-09-06T21:13:47.885Z,26.00
2022-09-06T21:16:14.672Z,25.90
2022-09-06T21:18:41.561Z,25.90
2022-09-06T21:21:08.761Z,25.90
2022-09-06T21:23:38.097Z,25.80
2022-09-06T21:26:10.390Z,25.80
2022-09-06T21:28:41.349Z,25.80
2022-09-06T21:31:17.093Z,25.70
2022-09-06T21:33:46.538Z,25.70
2022-09-06T21:36:18.610Z,25.70
2022-09-06T21:38:48.501Z,25.60
2022-09-06T21:41:17.464Z,25.60
2022-09-06T21:43:45.237Z,25.50
2022-09-06T21:46:17.301Z,25.50
2022-09-06T21:48:46.918Z,25.50
2022-09-06T21:51:16.534Z,25.50
2022-09-06T21:53:45.372Z,25.40
2022-09-06T21:56:13.244Z,25.40
2022-09-06T21:58:40.792Z,25.40
2022-09-06T22:01:08.120Z,25.30
2022-09-06T22:03:39.097Z,25.30
2022-09-06T22:06:10.865Z,25.30
2022-09-06T22:08:38.333Z,25.30
2022-09-06T22:11:16.590Z,25.20
2022-09-06T22:13:44.340Z,25.20
2022-09-06T22:16:12.155Z,25.20
2022-09-06T22:18:39.541Z,25.10
2022-09-06T22:21:12.122Z,25.10
2022-09-06T22:23:39.276Z,25.10
2022-09-06T22:26:08.856Z,25.10
2022-09-06T22:28:36.312Z,25.00
2022-09-06T22:31:03.945Z,25.00
2022-09-06T22:33:30.960Z,25.00
2022-09-06T22:35:59.697Z,24.90
2022-09-06T22:38:30.322Z,24.90
2022-09-06T22:40:58.432Z,24.90
2022-09-06T22:43:26.080Z,24.80
2022-09-06T22:45:53.296Z,24.80
2022-09-06T22:48:20.481Z,24.80
2022-09-06T22:50:47.312Z,24.70
2022-09-06T22:53:14.325Z,24.70
2022-09-06T22:55:47.222Z,24.60
2022-09-06T22:58:14.244Z,24.60
2022-09-06T23:00:41.071Z,24.60
2022-09-06T23:03:07.996Z,24.50
2022-09-06T23:05:35.481Z,24.50
2022-09-06T23:08:03.577Z,24.40
2022-09-06T23:10:31.142Z,24.40
2022-09-06T23:12:58.769Z,24.40
2022-09-06T23:15:25.655Z,24.30
2022-09-06T23:17:53.361Z,24.30
2022-09-06T23:20:20.074Z,24.20
2022-09-06T23:22:48.290Z,24.20
2022-09-06T23:25:15.166Z,24.20
2022-09-06T23:27:42.553Z,24.10
2022-09-06T23:30:11.147Z,24.10
2022-09-06T23:32:38.590Z,24.00
2022-09-06T23:35:06.056Z,24.00
2022-09-06T23:37:32.845Z,24.00
2022-09-06T23:39:59.785Z,23.90
2022-09-06T23:42:26.959Z,23.90
2022-09-06T23:44:57.459Z,23.90
2022-09-06T23:47:24.670Z,23.90
2022-09-06T23:49:51.997Z,23.90
2022-09-06T23:52:18.915Z,23.90
2022-09-06T23:54:45.829Z,23.80
2022-09-06T23:57:12.714Z,23.80
2022-09-06T23:59:39.546Z,23.80
